Time;durP1;ratioP1;P1;durP2;ratioP2;P2;SDS_P1;SDS_P2;PMS_P1;PMS_P2;Temp;Humidity;BMP_temperature;BMP_pressure;BME280_temperature;BME280_humidity;BME280_pressure;Samples;Min_cycle;Max_cycle;Signal;HPM_P1;HPM_P2
2022/04/26 04:08:08;;;;;;;;;;;;;;;10.59;89.88;96511.69;4281437;27;10169;-67
2022/04/26 04:10:09;;;;;;;;;;;;;;;10.66;89.87;96520.47;4266025;27;5082;-69
2022/04/26 04:12:11;;;;;;;;;;;;;;;10.72;89.13;96507.22;4265669;27;5632;-69
2022/04/26 04:14:14;;;;;;;;;;;;;;;10.75;89.09;96500.72;4264637;27;6921;-69
2022/04/26 04:16:15;;;;;;;;;;;;;;;10.77;88.67;96511.94;4253112;27;5748;-70
2022/04/26 04:20:37;;;;;;;;;;;;;;;10.84;88.01;96510.09;4248992;27;5653;-69
2022/04/26 04:22:39;;;;;;;;;;;;;;;10.87;87.72;96519.44;4268660;27;5612;-69
2022/04/26 04:24:41;;;;;;;;;;;;;;;10.87;87.61;96517.63;4283150;27;5621;-69
2022/04/26 04:26:43;;;;;;;;;;;;;;;10.84;87.60;96527.78;4281353;27;5571;-70
2022/04/26 04:28:44;;;;;;;;;;;;;;;10.87;87.33;96530.84;4282805;27;6367;-69
2022/04/26 04:30:46;;;;;;;;;;;;;;;10.88;87.29;96523.75;4283336;27;5690;-69
2022/04/26 04:32:48;;;;;;;;;;;;;;;10.89;86.99;96531.47;4265353;27;5600;-69
2022/04/26 04:34:49;;;;;;;;;;;;;;;10.90;86.95;96527.00;4248488;27;5653;-69
2022/04/26 04:36:51;;;;;;;;;;;;;;;10.95;86.69;96527.19;4248616;27;5788;-69
2022/04/26 04:38:53;;;;;;;;;;;;;;;10.97;86.34;96530.44;4247266;27;5712;-67
2022/04/26 04:40:54;;;;;;;;;;;;;;;10.99;86.40;96534.56;4261079;27;5636;-67
2022/04/26 04:42:56;;;;;;;;;;;;;;;11.02;86.25;96538.63;4256010;27;5728;-68
2022/04/26 04:44:58;;;;;;;;;;;;;;;11.02;86.45;96539.44;4254440;27;5624;-67
2022/04/26 04:47:00;;;;;;;;;;;;;;;10.98;86.85;96543.47;4263519;27;5620;-67
2022/04/26 04:49:02;;;;;;;;;;;;;;;10.93;87.39;96556.50;4265716;27;5640;-67
2022/04/26 04:51:04;;;;;;;;;;;;;;;10.88;87.62;96553.66;4265651;27;5625;-67
2022/04/26 04:53:11;;;;;;;;;;;;;;;10.85;87.76;96561.97;4264734;27;5627;-67
2022/04/26 04:55:13;;;;;;;;;;;;;;;10.83;87.27;96561.34;4264109;27;5669;-67
2022/04/26 04:57:15;;;;;;;;;;;;;;;10.85;87.23;96564.59;4258982;27;5701;-67
2022/04/26 04:59:16;;;;;;;;;;;;;;;10.88;87.11;96566.06;4254829;27;5637;-67
2022/04/26 05:01:18;;;;;;;;;;;;;;;10.90;87.18;96564.84;4265679;27;5637;-67
2022/04/26 05:03:20;;;;;;;;;;;;;;;10.91;86.69;96563.81;4269389;27;5810;-67
2022/04/26 05:05:22;;;;;;;;;;;;;;;10.89;87.13;96570.34;4264417;27;5653;-67
2022/04/26 05:07:23;;;;;;;;;;;;;;;10.87;86.98;96575.78;4247036;27;5642;-67
2022/04/26 05:09:25;;;;;;;;;;;;;;;10.88;86.83;96569.53;4251788;27;6913;-67
2022/04/26 05:11:26;;;;;;;;;;;;;;;10.84;87.44;96564.81;4238532;27;6395;-67
2022/04/26 05:13:29;;;;;;;;;;;;;;;10.89;86.77;96560.56;4228782;28;5609;-67
2022/04/26 05:15:30;;;;;;;;;;;;;;;10.97;86.28;96568.28;4259955;27;5611;-67
2022/04/26 05:17:32;;;;;;;;;;;;;;;10.98;85.99;96569.09;4271242;27;5761;-67
2022/04/26 05:19:34;;;;;;;;;;;;;;;11.01;85.73;96574.84;4259391;27;5804;-67
2022/04/26 05:21:36;;;;;;;;;;;;;;;10.96;85.50;96571.97;4253908;27;5771;-67
2022/04/26 05:25:57;;;;;;;;;;;;;;;10.99;85.39;96587.44;4253551;27;5721;-67
2022/04/26 05:27:59;;;;;;;;;;;;;;;10.99;85.44;96591.94;4253498;27;5657;-67
2022/04/26 05:30:01;;;;;;;;;;;;;;;10.99;85.29;96592.75;4253640;27;5622;-66
2022/04/26 05:32:03;;;;;;;;;;;;;;;10.99;84.90;96592.75;4247057;27;5654;-66
2022/04/26 05:34:05;;;;;;;;;;;;;;;10.97;85.15;96597.38;4250500;27;5663;-66
2022/04/26 05:36:07;;;;;;;;;;;;;;;10.97;85.11;96604.50;4251825;27;5629;-61
2022/04/26 05:38:11;;;;;;;;;;;;;;;10.92;84.98;96607.78;4236542;28;5661;-78
2022/04/26 05:40:13;;;;;;;;;;;;;;;10.93;85.26;96604.09;4236561;28;5646;-66
2022/04/26 05:42:14;;;;;;;;;;;;;;;10.93;84.99;96614.69;4239961;27;5633;-65
2022/04/26 05:44:16;;;;;;;;;;;;;;;10.96;85.13;96610.81;4241262;27;5708;-65
2022/04/26 05:46:18;;;;;;;;;;;;;;;10.99;85.23;96605.97;4246339;27;5914;-66
2022/04/26 05:48:19;;;;;;;;;;;;;;;10.77;86.19;96596.53;4235925;27;5642;-66
2022/04/26 05:50:21;;;;;;;;;;;;;;;10.90;85.55;96603.69;4236225;28;5808;-66
2022/04/26 05:52:24;;;;;;;;;;;;;;;10.85;85.37;96606.91;4236329;27;5634;-67
2022/04/26 05:54:26;;;;;;;;;;;;;;;10.85;85.67;96609.56;4236256;28;5792;-67
2022/04/26 05:56:27;;;;;;;;;;;;;;;10.89;85.63;96612.66;4236647;27;5650;-66
2022/04/26 05:58:29;;;;;;;;;;;;;;;10.85;85.39;96606.91;4252195;27;5657;-66
2022/04/26 06:00:31;;;;;;;;;;;;;;;10.88;84.98;96606.53;4253112;27;5656;-66
2022/04/26 06:02:33;;;;;;;;;;;;;;;10.91;85.10;96615.91;4249171;27;5628;-66
2022/04/26 06:04:38;;;;;;;;;;;;;;;10.93;84.96;96613.88;4245687;27;5628;-66
2022/04/26 06:06:40;;;;;;;;;;;;;;;10.91;85.24;96611.44;4237105;27;5669;-66
2022/04/26 06:08:42;;;;;;;;;;;;;;;10.83;86.06;96619.53;4246211;27;5633;-66
2022/04/26 06:10:49;;;;;;;;;;;;;;;10.81;85.85;96615.47;4252239;27;5651;-66
2022/04/26 06:12:52;;;;;;;;;;;;;;;10.74;86.23;96616.25;4246757;27;5768;-66
2022/04/26 06:14:57;;;;;;;;;;;;;;;10.69;86.74;96617.88;4249701;27;5583;-67
2022/04/26 06:16:59;;;;;;;;;;;;;;;10.74;86.62;96621.53;4251305;27;5620;-66
2022/04/26 06:19:02;;;;;;;;;;;;;;;10.76;86.38;96624.00;4252172;27;5629;-66
2022/04/26 06:21:03;;;;;;;;;;;;;;;10.79;86.02;96624.41;4251708;27;5830;-66
2022/04/26 06:23:05;;;;;;;;;;;;;;;10.82;85.86;96617.91;4252168;27;5632;-66
2022/04/26 06:25:07;;;;;;;;;;;;;;;10.89;85.92;96621.41;4250349;27;5606;-66
2022/04/26 06:27:09;;;;;;;;;;;;;;;10.79;85.59;96624.41;4252247;27;5783;-66
2022/04/26 06:29:10;;;;;;;;;;;;;;;10.81;85.07;96618.94;4254733;27;5636;-66
2022/04/26 06:31:12;;;;;;;;;;;;;;;10.83;85.07;96624.81;4244206;27;5678;-65
2022/04/26 06:33:14;;;;;;;;;;;;;;;10.90;84.61;96630.97;4215276;27;5623;-65
2022/04/26 06:35:22;;;;;;;;;;;;;;;10.97;84.37;96633.59;4251859;27;5632;-66
2022/04/26 06:37:24;;;;;;;;;;;;;;;10.82;85.15;96630.31;4251107;27;5664;-66
2022/04/26 06:39:26;;;;;;;;;;;;;;;10.79;86.03;96639.47;4248729;27;5823;-65
2022/04/26 06:41:29;;;;;;;;;;;;;;;10.97;85.36;96647.66;4252109;27;5707;-65
2022/04/26 06:43:33;;;;;;;;;;;;;;;11.00;84.90;96636.69;4240054;27;5679;-66
2022/04/26 06:45:34;;;;;;;;;;;;;;;11.03;83.52;96646.88;4251517;27;5621;-66
2022/04/26 06:47:37;;;;;;;;;;;;;;;11.06;83.69;96641.16;4251096;27;5740;-65
2022/04/26 06:49:38;;;;;;;;;;;;;;;11.09;84.24;96646.06;4251751;27;5791;-65
2022/04/26 06:51:44;;;;;;;;;;;;;;;11.15;84.25;96651.56;4251653;27;5657;-65
2022/04/26 06:53:45;;;;;;;;;;;;;;;11.17;84.08;96646.88;4243997;27;5723;-66
2022/04/26 06:55:47;;;;;;;;;;;;;;;11.18;84.00;96651.97;4251811;27;5777;-66
2022/04/26 06:57:49;;;;;;;;;;;;;;;11.19;84.43;96655.44;4250535;27;5837;-66
2022/04/26 06:59:50;;;;;;;;;;;;;;;11.23;84.21;96652.22;4252537;27;5633;-66
2022/04/26 07:01:55;;;;;;;;;;;;;;;11.26;84.21;96656.28;4251486;27;5629;-66
2022/04/26 07:03:57;;;;;;;;;;;;;;;11.29;84.42;96658.53;4241245;27;6339;-65
2022/04/26 07:05:59;;;;;;;;;;;;;;;11.08;84.11;96660.28;4234883;28;5662;-65
2022/04/26 07:08:07;;;;;;;;;;;;;;;11.21;84.70;96658.69;4235044;27;5878;-66
2022/04/26 07:10:10;;;;;;;;;;;;;;;11.23;84.29;96657.50;4240829;27;5636;-66
2022/04/26 07:12:11;;;;;;;;;;;;;;;11.27;84.24;96664.00;4252072;27;6286;-66
2022/04/26 07:14:14;;;;;;;;;;;;;;;11.24;84.98;96659.13;4231554;27;5586;-66
2022/04/26 07:16:18;;;;;;;;;;;;;;;11.26;84.36;96657.09;4250249;27;5749;-66
2022/04/26 07:18:20;;;;;;;;;;;;;;;11.31;84.51;96665.22;4252039;27;5628;-66
2022/04/26 07:20:23;;;;;;;;;;;;;;;11.32;84.26;96661.56;4249896;27;5700;-66
2022/04/26 07:22:26;;;;;;;;;;;;;;;11.34;84.03;96670.16;4250242;27;5636;-66
2022/04/26 07:24:27;;;;;;;;;;;;;;;11.31;84.25;96669.72;4239743;27;5748;-66
2022/04/26 07:26:29;;;;;;;;;;;;;;;11.29;84.47;96672.56;4250208;27;6274;-66
2022/04/26 07:28:32;;;;;;;;;;;;;;;11.20;84.05;96676.41;4252195;27;5612;-65
2022/04/26 07:30:38;;;;;;;;;;;;;;;11.09;84.75;96685.72;4251155;27;5087;-66
2022/04/26 07:35:00;;;;;;;;;;;;;;;10.76;83.72;96698.84;4238169;27;5669;-66
2022/04/26 07:37:02;;;;;;;;;;;;;;;10.75;83.41;96696.38;4233189;28;5613;-66
2022/04/26 07:39:06;;;;;;;;;;;;;;;10.59;81.64;96707.28;4234174;28;5713;-66
2022/04/26 07:41:09;;;;;;;;;;;;;;;10.31;80.26;96705.50;4248284;27;5641;-66
2022/04/26 07:43:11;;;;;;;;;;;;;;;10.06;82.81;96713.00;4243635;27;5746;-66
2022/04/26 07:45:13;;;;;;;;;;;;;;;10.12;83.19;96716.72;4245743;27;5614;-66
2022/04/26 07:47:14;;;;;;;;;;;;;;;10.03;81.67;96716.03;4252100;27;5609;-66
2022/04/26 07:49:17;;;;;;;;;;;;;;;9.86;81.08;96717.34;4251263;27;5783;-66
2022/04/26 07:51:19;;;;;;;;;;;;;;;9.73;81.21;96733.84;4236751;27;5649;-66
2022/04/26 07:53:21;;;;;;;;;;;;;;;9.52;79.58;96720.69;4244935;27;5633;-66
2022/04/26 07:55:23;;;;;;;;;;;;;;;9.40;79.02;96720.34;4251147;27;5731;-66
2022/04/26 07:57:25;;;;;;;;;;;;;;;9.33;78.80;96722.09;4242527;27;5730;-66
2022/04/26 07:59:28;;;;;;;;;;;;;;;9.28;79.48;96720.00;4243623;27;5676;-66
2022/04/26 08:01:32;;;;;;;;;;;;;;;9.33;79.55;96727.38;4243693;27;5625;-66
2022/04/26 08:03:35;;;;;;;;;;;;;;;9.23;79.03;96718.94;4243157;27;5782;-66
2022/04/26 08:05:40;;;;;;;;;;;;;;;9.16;79.68;96731.22;4250594;27;5621;-66
2022/04/26 08:07:44;;;;;;;;;;;;;;;8.99;80.45;96722.72;4250753;27;5633;-66
2022/04/26 08:09:46;;;;;;;;;;;;;;;8.99;80.14;96730.63;4249427;27;5737;-66
2022/04/26 08:11:49;;;;;;;;;;;;;;;8.96;81.29;96733.66;4248449;27;5702;-66
2022/04/26 08:13:53;;;;;;;;;;;;;;;9.06;81.02;96731.53;4240493;27;5605;-66
2022/04/26 08:15:55;;;;;;;;;;;;;;;9.09;81.16;96735.63;4242145;27;5672;-66
2022/04/26 08:17:58;;;;;;;;;;;;;;;9.10;79.46;96743.34;4245109;27;5654;-66
2022/04/26 08:20:00;;;;;;;;;;;;;;;9.11;79.83;96738.88;4233942;27;5817;-66
2022/04/26 08:22:03;;;;;;;;;;;;;;;9.19;79.59;96736.16;4233720;27;5638;-66
2022/04/26 08:28:47;;;;;;;;;;;;;;;9.38;77.73;96748.72;4238178;27;5709;-66
2022/04/26 08:30:48;;;;;;;;;;;;;;;9.42;77.63;96752.63;4251640;27;5622;-66
2022/04/26 08:32:50;;;;;;;;;;;;;;;9.36;78.19;96753.38;4247616;27;5831;-66
2022/04/26 08:34:57;;;;;;;;;;;;;;;9.26;84.43;96763.41;4241655;27;5735;-66
2022/04/26 08:36:59;;;;;;;;;;;;;;;8.91;88.78;96770.28;4250359;27;5804;-66
2022/04/26 08:39:01;;;;;;;;;;;;;;;8.60;84.22;96762.53;4248200;27;5720;-65
2022/04/26 08:41:03;;;;;;;;;;;;;;;8.51;87.70;96768.94;4248808;27;5821;-65
2022/04/26 08:43:05;;;;;;;;;;;;;;;8.26;90.25;96777.00;4248359;27;5720;-65
2022/04/26 08:45:15;;;;;;;;;;;;;;;8.32;90.48;96780.75;4240287;27;5805;-65
2022/04/26 08:52:03;;;;;;;;;;;;;;;8.49;89.32;96778.81;4233114;28;5751;-65
2022/04/26 08:54:04;;;;;;;;;;;;;;;8.53;88.84;96796.72;4233650;27;6446;-65
2022/04/26 08:56:06;;;;;;;;;;;;;;;8.56;88.70;96793.72;4241919;27;5756;-65
2022/04/26 08:58:11;;;;;;;;;;;;;;;8.65;89.89;96792.66;4244381;27;5741;-65
2022/04/26 09:00:14;;;;;;;;;;;;;;;8.64;88.00;96788.38;4252436;27;5695;-65
2022/04/26 09:02:19;;;;;;;;;;;;;;;8.75;88.42;96802.91;4251276;27;5719;-65
2022/04/26 09:04:21;;;;;;;;;;;;;;;8.84;86.83;96812.38;4239742;27;5780;-65
2022/04/26 09:06:32;;;;;;;;;;;;;;;8.86;87.94;96806.94;4245721;27;5662;-65
2022/04/26 09:08:35;;;;;;;;;;;;;;;8.82;87.86;96816.19;4236612;27;5708;-65
2022/04/26 09:10:46;;;;;;;;;;;;;;;8.88;89.60;96818.09;4241503;27;5752;-65
2022/04/26 09:13:07;;;;;;;;;;;;;;;9.08;88.88;96824.47;4250699;27;5763;-65
2022/04/26 09:15:16;;;;;;;;;;;;;;;9.10;87.42;96827.72;4248887;27;6417;-65
2022/04/26 09:17:20;;;;;;;;;;;;;;;9.16;88.03;96832.25;4241559;27;5738;-65
2022/04/26 09:19:21;;;;;;;;;;;;;;;9.08;85.38;96839.47;4249102;27;5717;-64
2022/04/26 09:21:27;;;;;;;;;;;;;;;9.16;86.50;96842.00;4233647;27;5812;-65
2022/04/26 09:23:29;;;;;;;;;;;;;;;9.25;86.53;96840.91;4240702;27;5763;-65
2022/04/26 09:25:31;;;;;;;;;;;;;;;9.41;86.47;96848.63;4236796;27;5762;-65
2022/04/26 09:27:38;;;;;;;;;;;;;;;9.60;86.91;96840.13;4241227;27;5839;-65
2022/04/26 09:29:47;;;;;;;;;;;;;;;9.70;87.10;96850.38;4240996;27;5715;-65
2022/04/26 09:32:01;;;;;;;;;;;;;;;9.78;88.09;96858.19;4240047;27;5862;-65
2022/04/26 09:34:11;;;;;;;;;;;;;;;9.90;87.81;96858.53;4237794;27;5730;-65
2022/04/26 09:36:14;;;;;;;;;;;;;;;9.95;87.66;96855.31;4250397;27;5715;-65
2022/04/26 09:38:25;;;;;;;;;;;;;;;10.11;87.60;96863.00;4250553;27;5715;-65
2022/04/26 09:40:28;;;;;;;;;;;;;;;10.31;87.23;96860.59;4236256;27;5731;-65
2022/04/26 09:42:33;;;;;;;;;;;;;;;10.28;84.89;96856.47;4249829;27;5756;-65
2022/04/26 09:44:40;;;;;;;;;;;;;;;10.19;84.36;96860.22;4248469;27;5843;-65
2022/04/26 09:46:43;;;;;;;;;;;;;;;10.09;84.03;96862.38;4250694;27;5636;-65
2022/04/26 09:48:45;;;;;;;;;;;;;;;10.05;84.89;96854.00;4250211;27;5723;-65
2022/04/26 09:50:47;;;;;;;;;;;;;;;10.14;84.23;96862.63;4237930;27;5812;-66
2022/04/26 09:52:49;;;;;;;;;;;;;;;10.13;83.48;96868.91;4247352;27;5871;-65
2022/04/26 09:54:50;;;;;;;;;;;;;;;10.10;84.51;96882.50;4250226;27;5743;-65
2022/04/26 09:56:53;;;;;;;;;;;;;;;10.24;84.05;96876.38;4237873;27;5756;-65
2022/04/26 09:58:57;;;;;;;;;;;;;;;10.33;82.84;96877.88;4249755;27;5712;-65
2022/04/26 10:01:04;;;;;;;;;;;;;;;10.29;82.65;96878.44;4243779;27;6436;-65
2022/04/26 10:03:14;;;;;;;;;;;;;;;10.19;82.33;96882.22;4262439;27;5782;-66
2022/04/26 10:05:20;;;;;;;;;;;;;;;10.39;83.59;96871.00;4261047;27;5730;-66
2022/04/26 10:07:26;;;;;;;;;;;;;;;10.52;83.51;96880.88;4249147;27;5761;-66
2022/04/26 10:09:28;;;;;;;;;;;;;;;10.56;82.11;96882.16;4248413;27;5795;-65
2022/04/26 10:11:31;;;;;;;;;;;;;;;10.51;81.41;96874.78;4235491;27;5968;-65
2022/04/26 10:13:36;;;;;;;;;;;;;;;10.39;79.46;96874.47;4232771;27;5784;-65
2022/04/26 10:15:39;;;;;;;;;;;;;;;10.22;81.62;96883.69;4247458;27;5110;-65
2022/04/26 10:17:50;;;;;;;;;;;;;;;10.36;81.28;96880.16;4248168;27;5892;-66
2022/04/26 10:19:52;;;;;;;;;;;;;;;10.59;82.72;96881.75;4248461;27;5768;-65
2022/04/26 10:21:56;;;;;;;;;;;;;;;10.55;79.35;96886.63;4242079;27;5732;-65
2022/04/26 10:24:11;;;;;;;;;;;;;;;10.63;79.49;96886.47;4232570;28;5749;-65
2022/04/26 10:26:22;;;;;;;;;;;;;;;10.50;78.60;96883.72;4244569;27;5836;-65
2022/04/26 10:28:26;;;;;;;;;;;;;;;10.62;79.24;96886.66;4238372;27;5745;-65
2022/04/26 10:30:50;;;;;;;;;;;;;;;10.81;79.31;96880.72;4250265;27;5814;-66
2022/04/26 10:32:52;;;;;;;;;;;;;;;10.83;77.66;96888.47;4249462;27;6396;-65
2022/04/26 10:34:54;;;;;;;;;;;;;;;10.75;78.29;96886.75;4245012;27;6864;-65
2022/04/26 10:36:56;;;;;;;;;;;;;;;10.64;78.48;96882.00;4237931;27;5910;-65
2022/04/26 10:39:13;;;;;;;;;;;;;;;10.76;77.88;96883.94;4245926;27;6614;-66
2022/04/26 10:41:16;;;;;;;;;;;;;;;10.75;78.48;96881.47;4238853;27;5808;-65
2022/04/26 10:43:18;;;;;;;;;;;;;;;10.82;77.92;96881.53;4250120;27;6536;-66
2022/04/26 10:45:20;;;;;;;;;;;;;;;10.69;76.63;96887.53;4247582;27;5583;-65
2022/04/26 10:47:22;;;;;;;;;;;;;;;10.58;76.12;96885.41;4235124;27;5654;-65
2022/04/26 10:49:35;;;;;;;;;;;;;;;10.69;76.45;96898.13;4251194;27;5735;-65
2022/04/26 10:51:39;;;;;;;;;;;;;;;10.67;76.32;96882.44;4251098;27;5754;-65
2022/04/26 10:53:45;;;;;;;;;;;;;;;10.75;75.87;96886.75;4250207;27;5803;-65
2022/04/26 10:55:49;;;;;;;;;;;;;;;10.79;75.20;96888.03;4252181;27;5635;-65
2022/04/26 10:57:57;;;;;;;;;;;;;;;10.93;76.05;96891.59;4254362;27;5712;-64
2022/04/26 11:00:02;;;;;;;;;;;;;;;11.04;75.84;96883.94;4255732;27;5762;-65
2022/04/26 11:02:04;;;;;;;;;;;;;;;11.15;75.18;96887.06;4250717;27;5796;-64
2022/04/26 11:04:06;;;;;;;;;;;;;;;11.23;74.56;96873.69;4251240;27;5732;-64
2022/04/26 11:06:07;;;;;;;;;;;;;;;11.17;72.66;96879.75;4253405;27;5917;-65
2022/04/26 11:08:09;;;;;;;;;;;;;;;11.15;72.70;96887.88;4219398;28;5675;-66
2022/04/26 11:10:14;;;;;;;;;;;;;;;11.13;73.55;96881.16;4217024;28;5683;-65
2022/04/26 11:12:21;;;;;;;;;;;;;;;11.34;74.04;96878.41;4218220;28;6448;-65
2022/04/26 11:14:24;;;;;;;;;;;;;;;11.41;72.61;96876.59;4216837;28;5668;-65
2022/04/26 11:16:26;;;;;;;;;;;;;;;11.54;73.49;96876.66;4219058;28;5770;-65
2022/04/26 11:18:32;;;;;;;;;;;;;;;11.68;72.41;96882.03;4217909;28;5678;-65
2022/04/26 11:20:35;;;;;;;;;;;;;;;11.81;71.71;96882.94;4216773;28;5771;-66
2022/04/26 11:22:53;;;;;;;;;;;;;;;11.87;70.48;96881.31;4221280;28;5748;-65
2022/04/26 11:29:56;;;;;;;;;;;;;;;11.89;68.47;96879.28;4217582;28;5754;-66
2022/04/26 11:31:58;;;;;;;;;;;;;;;11.97;68.59;96880.94;4216417;28;5855;-66
2022/04/26 11:34:00;;;;;;;;;;;;;;;12.02;68.39;96879.34;4217594;28;5810;-66
2022/04/26 11:36:02;;;;;;;;;;;;;;;11.88;66.61;96891.69;4217506;28;5778;-65
2022/04/26 11:38:14;;;;;;;;;;;;;;;11.76;66.84;96889.78;4217669;28;5688;-64
2022/04/26 11:40:21;;;;;;;;;;;;;;;11.77;67.67;96883.47;4199433;28;5758;-64
2022/04/26 11:42:24;;;;;;;;;;;;;;;11.97;67.10;96884.41;4200737;28;5681;-64
2022/04/26 11:44:27;;;;;;;;;;;;;;;12.03;65.64;96882.81;4220249;28;5809;-65
2022/04/26 11:46:30;;;;;;;;;;;;;;;12.05;64.05;96881.56;4218080;27;5726;-64
2022/04/26 11:48:34;;;;;;;;;;;;;;;12.06;64.10;96880.56;4182499;28;5834;-64
2022/04/26 11:50:36;;;;;;;;;;;;;;;12.07;63.09;96887.50;4219452;28;5902;-64
2022/04/26 11:52:38;;;;;;;;;;;;;;;12.01;64.11;96888.31;4215116;28;5819;-64
2022/04/26 11:54:40;;;;;;;;;;;;;;;11.97;63.25;96883.59;4204169;28;6386;-64
2022/04/26 11:56:42;;;;;;;;;;;;;;;12.02;65.16;96881.97;4216796;28;5675;-65
2022/04/26 11:58:44;;;;;;;;;;;;;;;12.16;64.99;96882.81;4215579;28;5625;-65
2022/04/26 12:00:55;;;;;;;;;;;;;;;12.04;61.85;96872.00;4205676;28;5794;-65
2022/04/26 12:02:57;;;;;;;;;;;;;;;12.09;64.59;96880.16;4201552;28;5790;-65
2022/04/26 12:04:59;;;;;;;;;;;;;;;11.94;63.16;96869.72;4207457;28;5731;-65
2022/04/26 12:07:01;;;;;;;;;;;;;;;11.88;61.85;96873.16;4230860;27;5965;-65
2022/04/26 12:09:05;;;;;;;;;;;;;;;11.84;62.30;96873.75;4253215;27;5624;-64
2022/04/26 12:11:20;;;;;;;;;;;;;;;11.84;64.26;96873.75;4250402;27;5728;-65
2022/04/26 12:13:32;;;;;;;;;;;;;;;12.07;63.94;96876.88;4250238;27;5707;-65
2022/04/26 12:15:36;;;;;;;;;;;;;;;12.22;64.14;96872.22;4250023;27;5597;-65
2022/04/26 12:17:37;;;;;;;;;;;;;;;12.36;62.47;96874.91;4251225;27;5621;-65
2022/04/26 12:19:40;;;;;;;;;;;;;;;12.39;63.17;96875.31;4254381;27;5758;-65
2022/04/26 12:21:52;;;;;;;;;;;;;;;12.51;62.85;96875.53;4251996;27;5583;-66
2022/04/26 12:24:16;;;;;;;;;;;;;;;12.32;61.02;96881.63;4254227;27;5639;-65
2022/04/26 12:26:18;;;;;;;;;;;;;;;12.39;62.68;96875.31;4247513;27;5623;-65
2022/04/26 12:28:19;;;;;;;;;;;;;;;12.38;60.70;96872.88;4246582;27;5697;-65
2022/04/26 12:30:21;;;;;;;;;;;;;;;12.44;61.10;96870.22;4251330;27;5808;-65
2022/04/26 12:32:26;;;;;;;;;;;;;;;12.50;60.24;96864.13;4245725;27;5731;-65
2022/04/26 12:34:31;;;;;;;;;;;;;;;12.50;59.09;96866.75;4243184;27;6165;-66
2022/04/26 12:36:57;;;;;;;;;;;;;;;12.38;57.31;96868.38;4251817;27;5779;-66
2022/04/26 12:39:00;;;;;;;;;;;;;;;12.42;58.83;96868.78;4250691;27;5922;-65
2022/04/26 12:41:06;;;;;;;;;;;;;;;12.54;58.28;96861.84;4249358;27;5732;-66
2022/04/26 12:43:28;;;;;;;;;;;;;;;12.67;58.93;96869.81;4251154;27;5969;-65
2022/04/26 12:45:29;;;;;;;;;;;;;;;12.68;58.07;96871.44;4245447;27;6326;-65
2022/04/26 12:52:31;;;;;;;;;;;;;;;12.55;57.31;96863.50;4244120;27;5757;-65
2022/04/26 12:54:32;;;;;;;;;;;;;;;12.66;57.03;96870.03;4244684;27;6630;-65
2022/04/26 12:56:35;;;;;;;;;;;;;;;12.76;57.39;96863.28;4242416;27;5765;-65
2022/04/26 12:58:41;;;;;;;;;;;;;;;12.79;57.99;96859.41;4251038;27;5724;-65
2022/04/26 13:00:53;;;;;;;;;;;;;;;12.70;57.75;96856.16;4245555;27;5750;-66
2022/04/26 13:03:04;;;;;;;;;;;;;;;12.89;58.68;96853.69;4252949;27;5702;-66
2022/04/26 13:05:07;;;;;;;;;;;;;;;12.98;56.98;96852.44;4246723;27;5764;-65
2022/04/26 13:07:09;;;;;;;;;;;;;;;12.96;56.17;96854.50;4232680;27;5796;-65
2022/04/26 13:09:11;;;;;;;;;;;;;;;13.03;55.32;96847.34;4245897;27;5712;-65
2022/04/26 13:11:17;;;;;;;;;;;;;;;13.01;55.38;96849.38;4235206;27;5748;-66
2022/04/26 13:13:19;;;;;;;;;;;;;;;13.04;54.70;96847.16;4236003;27;5772;-65
2022/04/26 13:15:23;;;;;;;;;;;;;;;13.18;56.38;96847.94;4246252;27;5130;-66
2022/04/26 13:17:25;;;;;;;;;;;;;;;13.26;56.20;96847.75;4244984;27;5613;-66
2022/04/26 13:19:26;;;;;;;;;;;;;;;13.31;55.54;96853.22;4250760;27;5710;-66
2022/04/26 13:21:28;;;;;;;;;;;;;;;13.33;55.56;96853.00;4250877;27;5706;-67
2022/04/26 13:23:32;;;;;;;;;;;;;;;13.20;53.43;96840.59;4245554;27;5775;-66
2022/04/26 13:25:34;;;;;;;;;;;;;;;13.28;56.35;96847.53;4242862;27;5701;-66
2022/04/26 13:27:40;;;;;;;;;;;;;;;13.29;57.05;96847.31;4232992;27;5846;-66
2022/04/26 13:29:41;;;;;;;;;;;;;;;13.29;57.88;96843.84;4245495;27;5723;-66
2022/04/26 13:31:43;;;;;;;;;;;;;;;13.30;57.67;96840.16;4250851;27;5695;-66
2022/04/26 13:33:45;;;;;;;;;;;;;;;13.39;55.86;96839.72;4224769;27;5724;-67
2022/04/26 13:35:47;;;;;;;;;;;;;;;13.44;56.67;96841.75;4249027;27;5721;-66
2022/04/26 13:37:50;;;;;;;;;;;;;;;13.51;56.10;96841.72;4248495;27;5783;-66
2022/04/26 13:39:54;;;;;;;;;;;;;;;13.59;57.02;96838.81;4238486;27;5755;-66
2022/04/26 13:41:56;;;;;;;;;;;;;;;13.63;55.69;96842.72;4250073;27;5719;-66
2022/04/26 13:43:58;;;;;;;;;;;;;;;13.61;55.65;96832.28;4249406;27;5529;-66
2022/04/26 13:46:00;;;;;;;;;;;;;;;13.61;55.50;96826.16;4249063;27;7872;-66
2022/04/26 13:48:09;;;;;;;;;;;;;;;13.62;54.81;96817.16;4250428;27;5648;-63
2022/04/26 13:50:11;;;;;;;;;;;;;;;13.72;56.23;96820.19;4242809;27;5833;-66
2022/04/26 13:52:16;;;;;;;;;;;;;;;13.79;56.50;96823.63;4251884;27;5796;-66
2022/04/26 13:54:18;;;;;;;;;;;;;;;13.68;53.34;96821.63;4247340;27;5769;-66
2022/04/26 13:56:20;;;;;;;;;;;;;;;13.60;53.51;96833.31;4242242;27;5637;-66
2022/04/26 13:58:22;;;;;;;;;;;;;;;13.60;53.12;96829.84;4250564;27;5676;-66
2022/04/26 14:00:23;;;;;;;;;;;;;;;13.49;53.41;96830.50;4242154;27;5584;-68
2022/04/26 14:02:25;;;;;;;;;;;;;;;13.45;53.45;96826.63;4247095;27;5583;-68
2022/04/26 14:04:27;;;;;;;;;;;;;;;13.47;53.60;96827.22;4238373;27;6335;-66
2022/04/26 14:06:31;;;;;;;;;;;;;;;13.53;53.45;96831.72;4251417;27;5636;-67
2022/04/26 14:08:33;;;;;;;;;;;;;;;13.39;53.18;96823.81;4228230;28;5100;-67
2022/04/26 14:10:35;;;;;;;;;;;;;;;13.47;53.87;96827.22;4237485;27;5661;-68
2022/04/26 14:12:37;;;;;;;;;;;;;;;13.49;53.17;96826.00;4253236;27;5715;-68
2022/04/26 14:21:49;;;;;;;;;;;;;;;13.60;52.42;96825.34;4248285;27;6307;-68
2022/04/26 14:23:51;;;;;;;;;;;;;;;13.65;52.84;96822.06;4245934;27;5632;-68
2022/04/26 14:25:53;;;;;;;;;;;;;;;13.72;53.88;96827.34;4228134;27;5581;-68
2022/04/26 14:27:55;;;;;;;;;;;;;;;13.71;52.15;96821.22;4243191;27;5752;-68
2022/04/26 14:29:57;;;;;;;;;;;;;;;13.78;54.45;96816.66;4242402;27;5755;-68
2022/04/26 14:31:59;;;;;;;;;;;;;;;13.86;53.96;96815.63;4240535;27;5640;-68
2022/04/26 14:34:01;;;;;;;;;;;;;;;13.88;53.23;96811.72;4236738;27;5606;-67
2022/04/26 14:36:02;;;;;;;;;;;;;;;13.98;54.17;96806.75;4242055;27;5968;-68
2022/04/26 14:38:05;;;;;;;;;;;;;;;14.06;53.56;96815.50;4242769;27;5735;-67
2022/04/26 14:40:08;;;;;;;;;;;;;;;14.07;52.45;96809.97;4244756;27;5739;-67
2022/04/26 14:42:10;;;;;;;;;;;;;;;13.96;52.56;96803.50;4242222;27;5767;-67
2022/04/26 14:44:12;;;;;;;;;;;;;;;14.04;54.23;96809.56;4249025;27;5724;-68
2022/04/26 14:46:13;;;;;;;;;;;;;;;14.08;52.33;96803.63;4244717;27;5811;-66
2022/04/26 14:48:16;;;;;;;;;;;;;;;13.98;53.00;96804.09;4242596;27;5735;-67
2022/04/26 14:50:27;;;;;;;;;;;;;;;13.91;52.76;96805.16;4247967;27;5883;-67
2022/04/26 14:52:29;;;;;;;;;;;;;;;13.95;52.01;96809.84;4235782;27;5719;-67
2022/04/26 14:54:37;;;;;;;;;;;;;;;14.02;53.18;96804.47;4248617;27;5746;-67
2022/04/26 14:56:38;;;;;;;;;;;;;;;13.99;52.58;96803.06;4244325;27;5704;-68
2022/04/26 14:58:49;;;;;;;;;;;;;;;14.09;52.53;96797.28;4243141;27;5735;-67
2022/04/26 15:00:52;;;;;;;;;;;;;;;14.08;52.56;96808.13;4245899;27;6477;-66
2022/04/26 15:02:54;;;;;;;;;;;;;;;13.98;52.11;96806.75;4245366;27;5744;-67
2022/04/26 15:04:56;;;;;;;;;;;;;;;13.92;52.29;96796.97;4235652;27;5724;-67
2022/04/26 15:06:57;;;;;;;;;;;;;;;13.89;52.93;96797.41;4242296;27;5724;-67
2022/04/26 15:11:19;;;;;;;;;;;;;;;13.71;52.48;96789.34;4249295;27;6359;-67
2022/04/26 15:18:22;;;;;;;;;;;;;;;13.77;52.94;96788.47;4193420;28;5721;-69
2022/04/26 15:20:25;;;;;;;;;;;;;;;13.82;53.44;96786.00;4198584;28;5817;-67
2022/04/26 15:22:27;;;;;;;;;;;;;;;13.91;52.07;96798.00;4205793;28;5706;-67
2022/04/26 15:24:28;;;;;;;;;;;;;;;13.82;52.15;96786.00;4195819;28;5756;-66
2022/04/26 15:26:31;;;;;;;;;;;;;;;13.83;52.57;96795.59;4197211;28;5871;-67
2022/04/26 15:28:34;;;;;;;;;;;;;;;13.84;52.57;96794.56;4202083;28;5814;-67
2022/04/26 15:30:44;;;;;;;;;;;;;;;13.89;52.92;96791.25;4212521;28;6504;-66
2022/04/26 15:32:46;;;;;;;;;;;;;;;13.84;52.13;96799.88;4209551;28;5945;-66
2022/04/26 15:34:48;;;;;;;;;;;;;;;13.68;53.49;96797.72;4214816;28;5874;-66
2022/04/26 15:36:50;;;;;;;;;;;;;;;13.66;53.11;96800.59;4207237;28;5799;-66
2022/04/26 15:38:56;;;;;;;;;;;;;;;13.70;53.02;96798.31;4203285;28;5876;-66
2022/04/26 15:41:05;;;;;;;;;;;;;;;13.81;53.08;96794.16;4219176;28;5794;-66